Terminal Aerodrome Forecast
Issued by NWS

Home | Current Version | Previous Version | Text Only | Print | Product List | Glossary On
Versions: 1 2 3 4 5 6 7 8 9 10 11 12 13 14 15 16
000
FTAK31 PAFA 220523
TAFAMC
TAF
PAMC 220523Z 2206/2306 01005KT P6SM FEW060 SCT200
     FM222000 28006KT P6SM SCT060 SCT120 BKN200=

USA.gov is the U.S. government's official web portal to all federal, state and local government web resources and services.